Terminal Aerodrome Forecast
Issued by NWS Pueblo, CO

Home | Current Version | Previous Version | Text Only | Print | Product List | Glossary On
Versions: 1 2 3 4 5 6 7 8 9 10 11 12 13 14 15 16
000
FTUS45 KPUB 261122
TAFALS
TAF
KALS 261122Z 2612/2712 VRB06KT P6SM SCT090 BKN140
     FM262100 35009KT P6SM VCTS SCT080CB BKN140
     FM270200 01006KT P6SM SCT080 BKN140
     FM270600 VRB04KT P6SM SCT140=

USA.gov is the U.S. government's official web portal to all federal, state and local government web resources and services.